Time;durP1;ratioP1;P1;durP2;ratioP2;P2;SDS_P1;SDS_P2;PMS_P1;PMS_P2;Temp;Humidity;BMP_temperature;BMP_pressure;BME280_temperature;BME280_humidity;BME280_pressure;Samples;Min_cycle;Max_cycle;Signal;HPM_P1;HPM_P2
2023/07/30 00:01:59;;;;;;;12.52;9.65;;;;;;;-145.63;60.40;39123.97;5038700;28;20305;-67
2023/07/30 00:04:25;;;;;;;12.32;8.90;;;;;;;-145.63;60.51;39122.03;5029347;28;20037;-68
2023/07/30 00:06:51;;;;;;;14.93;8.98;;;;;;;-145.63;60.36;39133.75;5046224;28;20028;-66
2023/07/30 00:09:17;;;;;;;16.92;8.73;;;;;;;-145.63;60.42;39145.50;5041496;28;20040;-67
2023/07/30 00:11:42;;;;;;;17.60;10.55;;;;;;;-145.63;60.48;39151.38;5026145;28;20089;-67
2023/07/30 00:14:08;;;;;;;13.10;10.07;;;;;;;-145.63;60.42;39137.69;5026157;28;20050;-68
2023/07/30 00:16:33;;;;;;;15.98;10.65;;;;;;;-145.63;60.44;39135.72;5029957;28;20033;-66
2023/07/30 00:18:59;;;;;;;16.38;10.75;;;;;;;-145.63;60.42;39139.63;5045987;28;20028;-68
2023/07/30 00:21:25;;;;;;;13.48;10.60;;;;;;;-145.63;60.50;39151.38;5026451;28;20365;-67
2023/07/30 00:23:51;;;;;;;15.88;11.38;;;;;;;-145.63;60.59;39149.41;5040545;28;20060;-67
2023/07/30 00:26:16;;;;;;;14.05;11.00;;;;;;;-145.63;60.38;39147.44;5035742;28;20033;-67
2023/07/30 00:28:42;;;;;;;18.58;11.23;;;;;;;-145.63;60.32;39149.41;5031116;28;20199;-67
2023/07/30 00:31:08;;;;;;;20.25;10.63;;;;;;;-145.63;60.57;39270.66;5045384;28;20367;-67
2023/07/30 00:33:34;;;;;;;16.73;11.18;;;;;;;-145.63;60.73;39168.97;5045721;28;20104;-67
2023/07/30 00:35:59;;;;;;;14.98;11.43;;;;;;;-145.63;60.54;39135.72;5029871;28;20026;-67
2023/07/30 00:38:25;;;;;;;19.25;12.77;;;;;;;-145.63;60.56;39147.44;5036493;28;20025;-67
2023/07/30 00:40:51;;;;;;;22.05;13.38;;;;;;;-145.63;60.38;39155.28;5045070;28;20028;-67
2023/07/30 00:43:16;;;;;;;19.10;12.55;;;;;;;-145.63;60.51;39174.84;5045304;28;20025;-67
2023/07/30 00:45:44;;;;;;;15.57;11.85;;;;;;;-145.63;60.25;39145.50;5045530;28;20025;-67
2023/07/30 00:48:13;;;;;;;14.68;12.65;;;;;;;-145.63;60.52;39163.09;5028572;28;20030;-68
2023/07/30 00:50:39;;;;;;;17.60;13.57;;;;;;;-145.63;60.25;39168.97;5025469;28;20030;-67
2023/07/30 00:53:05;;;;;;;18.77;13.85;;;;;;;-145.63;60.39;39137.69;5025478;28;20026;-67
2023/07/30 00:55:31;;;;;;;15.23;13.40;;;;;;;-145.63;60.32;39141.59;5027593;28;20033;-67
2023/07/30 00:57:57;;;;;;;14.80;13.27;;;;;;;-145.63;60.30;39139.63;5045280;28;20039;-67
2023/07/30 01:00:24;;;;;;;20.60;13.88;;;;;;;-145.63;60.19;39176.78;5026379;28;20022;-66
2023/07/30 01:02:53;;;;;;;19.17;14.18;;;;;;;-145.63;60.31;39165.06;5039602;28;20094;-67
2023/07/30 01:05:20;;;;;;;20.83;15.18;;;;;;;-145.63;60.06;39172.88;5035227;28;20045;-67
2023/07/30 01:07:45;;;;;;;20.80;15.50;;;;;;;-145.63;60.48;39157.22;5029246;28;20029;-67
2023/07/30 01:10:12;;;;;;;21.55;16.00;;;;;;;-145.63;60.52;39198.31;5044495;28;20314;-68
2023/07/30 01:12:38;;;;;;;17.10;14.57;;;;;;;-145.63;60.65;39131.81;5025017;28;20057;-67
2023/07/30 01:15:05;;;;;;;18.60;13.93;;;;;;;-145.63;60.55;39180.69;5041043;28;20033;-67
2023/07/30 01:17:33;;;;;;;20.23;14.05;;;;;;;-145.63;60.58;39176.78;5033300;28;20053;-67
2023/07/30 01:19:59;;;;;;;19.70;14.43;;;;;;;-145.63;60.49;39133.75;5031937;28;20092;-69
2023/07/30 01:22:24;;;;;;;20.30;14.55;;;;;;;-145.63;60.57;39180.69;5029610;28;20036;-67
2023/07/30 01:24:50;;;;;;;17.45;14.65;;;;;;;-145.63;60.35;39165.06;5044732;28;20037;-67
2023/07/30 01:27:38;;;;;;;16.08;13.20;;;;;;;-145.63;60.38;39149.41;5027261;28;20318;-67
2023/07/30 01:30:18;;;;;;;18.55;14.13;;;;;;;-145.63;60.21;39157.22;5040106;28;20318;-68
2023/07/30 01:32:48;;;;;;;18.05;14.48;;;;;;;-145.63;60.21;39208.06;5044756;28;20299;-67
2023/07/30 01:35:15;;;;;;;16.95;13.88;;;;;;;-145.63;60.07;39176.78;5035560;28;20337;-67
2023/07/30 01:37:42;;;;;;;18.98;14.77;;;;;;;-145.63;60.21;39165.06;5028705;28;20026;-68
2023/07/30 01:40:09;;;;;;;17.20;13.60;;;;;;;-145.63;60.28;39186.56;5024925;28;20044;-68
2023/07/30 01:42:36;;;;;;;21.73;14.30;;;;;;;-145.63;60.27;39165.06;5022923;28;20034;-68
2023/07/30 01:45:02;;;;;;;29.17;16.83;;;;;;;-145.63;60.13;39176.78;5039318;28;20036;-66
2023/07/30 01:47:30;;;;;;;19.80;14.23;;;;;;;-145.63;60.29;39182.66;5044583;28;20033;-68
2023/07/30 01:49:56;;;;;;;16.75;13.70;;;;;;;-145.63;60.39;39170.91;5036678;28;20053;-67
2023/07/30 01:52:22;;;;;;;21.75;16.88;;;;;;;-145.63;60.44;39145.50;5025873;28;20026;-67
2023/07/30 01:54:47;;;;;;;19.42;14.70;;;;;;;-145.63;60.50;39170.91;5044143;28;20160;-68
2023/07/30 01:57:13;;;;;;;16.17;14.00;;;;;;;-145.63;60.44;39188.53;5027414;28;20026;-68
2023/07/30 01:59:39;;;;;;;18.95;14.48;;;;;;;-145.63;60.49;39182.66;5036301;28;20025;-68
2023/07/30 02:02:05;;;;;;;20.45;14.80;;;;;;;-145.63;60.56;39147.44;5036809;28;20098;-67
2023/07/30 02:04:30;;;;;;;23.05;14.88;;;;;;;-145.63;60.58;39182.66;5026544;28;20293;-68
2023/07/30 02:06:56;;;;;;;25.60;15.52;;;;;;;-145.63;60.53;39165.06;5043880;28;20325;-67
2023/07/30 02:09:21;;;;;;;25.27;17.25;;;;;;;-145.63;60.65;39180.69;5043715;28;20049;-66
2023/07/30 02:11:47;;;;;;;26.27;21.73;;;;;;;-145.63;60.81;39178.75;5030931;28;20037;-67
2023/07/30 02:14:13;;;;;;;24.20;18.10;;;;;;;-145.63;60.94;39188.53;5032353;28;20030;-68
2023/07/30 02:16:39;;;;;;;22.65;15.82;;;;;;;-145.63;60.91;39167.00;5039774;28;20034;-67
2023/07/30 02:19:04;;;;;;;18.00;13.85;;;;;;;-145.63;61.05;39079.00;5023805;28;20272;-67
2023/07/30 02:21:32;;;;;;;19.92;14.95;;;;;;;-145.63;60.89;39200.25;5058306;28;20360;-67
2023/07/30 02:23:59;;;;;;;23.80;16.13;;;;;;;-145.63;60.96;39192.44;5029121;28;20029;-67
2023/07/30 02:26:25;;;;;;;20.70;14.55;;;;;;;-145.63;61.27;39200.25;5033453;28;20100;-68
2023/07/30 02:28:50;;;;;;;18.23;13.95;;;;;;;-145.63;61.33;39188.53;5038630;28;20022;-67
2023/07/30 02:31:16;;;;;;;17.88;13.10;;;;;;;-145.63;61.73;39196.34;5035148;28;20054;-66
2023/07/30 02:33:42;;;;;;;19.33;13.45;;;;;;;-145.63;61.64;39153.31;5043588;28;20029;-69
2023/07/30 02:36:07;;;;;;;21.70;14.10;;;;;;;-145.63;61.67;39190.47;5043510;28;20056;-67
2023/07/30 02:38:33;;;;;;;16.45;13.43;;;;;;;-145.63;61.69;39182.66;5032305;28;20029;-67
2023/07/30 02:40:59;;;;;;;19.77;13.68;;;;;;;-145.63;62.08;39172.88;5024809;28;20022;-68
2023/07/30 02:43:25;;;;;;;19.50;13.38;;;;;;;-145.63;61.97;39188.53;5023703;28;20028;-67
2023/07/30 02:45:50;;;;;;;18.95;12.68;;;;;;;-145.63;62.21;39168.97;5023778;28;20018;-67
2023/07/30 02:48:16;;;;;;;16.63;12.70;;;;;;;-145.63;62.19;39210.03;5040038;28;20340;-67
2023/07/30 02:50:42;;;;;;;14.90;11.88;;;;;;;-145.63;62.31;39172.88;5031207;28;20052;-68
2023/07/30 02:53:08;;;;;;;15.02;11.32;;;;;;;-145.63;62.15;39176.78;5030717;28;20028;-67
2023/07/30 02:55:34;;;;;;;12.68;10.00;;;;;;;-145.63;61.94;39188.53;5040607;28;20033;-67
2023/07/30 02:58:00;;;;;;;13.77;10.65;;;;;;;-145.63;62.11;39182.66;5023501;28;20118;-66
2023/07/30 03:00:25;;;;;;;16.38;10.80;;;;;;;-145.63;62.17;39180.69;5040985;28;20029;-67
2023/07/30 03:02:51;;;;;;;11.82;9.10;;;;;;;-145.63;61.97;39106.38;5029879;28;20042;-67
2023/07/30 03:05:17;;;;;;;12.77;9.98;;;;;;;-145.63;62.14;39159.19;5031746;28;20080;-68
2023/07/30 03:07:42;;;;;;;15.45;10.05;;;;;;;-145.63;61.82;39145.50;5039648;28;20026;-67
2023/07/30 03:10:08;;;;;;;12.85;9.10;;;;;;;-145.63;61.86;39159.19;5023292;28;20022;-67
2023/07/30 03:12:34;;;;;;;14.98;10.25;;;;;;;-145.63;61.85;39161.13;5041075;28;20275;-67
2023/07/30 03:14:59;;;;;;;13.55;10.15;;;;;;;-145.63;62.04;39167.00;5029015;28;20079;-67
2023/07/30 03:17:25;;;;;;;13.80;9.00;;;;;;;-145.63;61.88;39145.50;5023221;28;20029;-68
2023/07/30 03:19:51;;;;;;;10.15;8.60;;;;;;;-145.63;61.77;39141.59;5027985;28;20036;-68
2023/07/30 03:22:17;;;;;;;18.95;13.55;;;;;;;-145.63;61.77;39137.69;5042908;28;20035;-68
2023/07/30 03:24:42;;;;;;;13.55;10.07;;;;;;;-145.63;61.53;39102.47;5023177;28;20093;-68
2023/07/30 03:27:08;;;;;;;18.80;15.75;;;;;;;-145.63;61.97;39135.72;5038750;28;20028;-67
2023/07/30 03:29:34;;;;;;;11.73;10.20;;;;;;;-145.63;61.51;39100.50;5029153;28;20041;-67
2023/07/30 03:31:59;;;;;;;9.95;8.45;;;;;;;-145.63;61.69;39129.84;5044565;28;20055;-67
2023/07/30 03:34:25;;;;;;;9.45;8.55;;;;;;;-145.63;61.11;39112.25;5045416;28;20025;-68
2023/07/30 03:36:50;;;;;;;10.70;8.32;;;;;;;-145.63;60.93;39086.81;5026966;28;20029;-68
2023/07/30 03:39:16;;;;;;;14.02;8.05;;;;;;;-145.63;60.63;39094.66;5042956;28;20033;-67
2023/07/30 03:41:43;;;;;;;12.18;8.48;;;;;;;-145.63;60.57;39086.81;5044803;28;20025;-67
2023/07/30 03:44:08;;;;;;;7.72;6.90;;;;;;;-145.63;60.02;39094.66;5039717;28;20176;-66
2023/07/30 03:46:34;;;;;;;7.80;7.00;;;;;;;-145.63;59.38;39125.94;5028778;28;20042;-69
2023/07/30 03:49:01;;;;;;;10.73;7.13;;;;;;;-145.63;59.13;39082.91;5046600;28;20026;-67
2023/07/30 03:51:27;;;;;;;9.77;6.65;;;;;;;-145.63;59.22;39077.06;5028957;28;20028;-67
2023/07/30 03:53:52;;;;;;;10.82;7.78;;;;;;;-145.63;59.19;39090.75;5039413;28;20100;-67
2023/07/30 03:56:18;;;;;;;12.50;7.85;;;;;;;-145.63;58.86;39041.84;5038138;28;20271;-67
2023/07/30 03:58:44;;;;;;;10.65;7.70;;;;;;;-145.63;59.40;39018.38;5030110;28;20029;-67
2023/07/30 04:01:09;;;;;;;23.55;20.90;;;;;;;-145.63;59.80;39065.31;5046313;28;20027;-68
2023/07/30 04:03:35;;;;;;;8.35;7.55;;;;;;;-145.63;59.09;39037.94;5027475;28;20041;-67
2023/07/30 04:06:01;;;;;;;12.63;9.82;;;;;;;-145.63;58.67;39055.53;5040331;28;20029;-68
2023/07/30 04:08:27;;;;;;;8.85;7.68;;;;;;;-145.63;59.45;39063.34;5036799;28;20036;-67
2023/07/30 04:10:53;;;;;;;9.38;6.88;;;;;;;-145.63;58.70;39037.94;5030683;28;20052;-67
2023/07/30 04:13:19;;;;;;;8.85;6.85;;;;;;;-145.63;58.55;39022.28;5045961;28;20358;-67
2023/07/30 04:15:47;;;;;;;8.05;6.35;;;;;;;-145.63;57.69;39022.28;5026275;28;20180;-67
2023/07/30 04:18:13;;;;;;;14.13;11.50;;;;;;;-145.63;58.04;39008.59;5038414;28;20029;-68
2023/07/30 04:20:39;;;;;;;9.60;5.93;;;;;;;-145.63;57.94;39022.28;5045667;28;20049;-68
2023/07/30 04:23:05;;;;;;;7.85;6.25;;;;;;;-145.63;57.64;38992.97;5036682;28;20085;-67
2023/07/30 04:25:30;;;;;;;8.18;6.22;;;;;;;-145.63;58.61;39053.59;5044313;28;20217;-68
2023/07/30 04:27:56;;;;;;;9.20;6.35;;;;;;;-145.63;58.84;39004.69;5026252;28;20028;-67
2023/07/30 04:30:22;;;;;;;6.05;5.45;;;;;;;-145.63;57.34;39002.72;5042168;28;20071;-66
2023/07/30 04:32:47;;;;;;;8.10;6.15;;;;;;;-145.63;57.70;38957.75;5045764;28;20032;-67
2023/07/30 04:35:13;;;;;;;9.52;6.53;;;;;;;-145.63;57.91;38910.81;5038506;28;20218;-67
2023/07/30 04:37:39;;;;;;;5.47;4.68;;;;;;;-145.63;57.08;38973.41;5028263;28;20089;-67
2023/07/30 04:40:05;;;;;;;6.80;4.90;;;;;;;-145.63;56.74;38987.09;5045490;28;20036;-67
2023/07/30 04:42:31;;;;;;;7.85;5.45;;;;;;;-145.63;56.41;38971.44;5043249;28;20052;-68
2023/07/30 04:44:57;;;;;;;6.28;4.78;;;;;;;-145.63;57.07;38949.94;5032304;28;20037;-67
2023/07/30 04:47:22;;;;;;;8.30;6.32;;;;;;;-145.63;56.81;38947.97;5033809;28;20059;-69
2023/07/30 04:49:48;;;;;;;7.68;5.40;;;;;;;-145.63;56.91;38951.88;5041645;28;20195;-68
2023/07/30 04:52:14;;;;;;;7.60;4.88;;;;;;;-145.63;56.76;38944.06;5025279;28;20030;-68
2023/07/30 04:54:39;;;;;;;9.77;5.13;;;;;;;-145.63;57.26;38944.06;5043818;28;20064;-68
2023/07/30 04:57:05;;;;;;;6.05;4.97;;;;;;;-145.63;56.00;38918.66;5031273;28;20025;-67
2023/07/30 04:59:33;;;;;;;10.07;5.30;;;;;;;-145.63;56.39;38922.56;5034745;28;20048;-68
2023/07/30 05:02:00;;;;;;;4.45;4.00;;;;;;;-145.63;55.84;38861.94;5040524;28;20250;-67
2023/07/30 05:04:25;;;;;;;5.90;4.47;;;;;;;-145.63;55.38;38881.50;5025456;28;20026;-68
2023/07/30 05:06:51;;;;;;;6.60;3.83;;;;;;;-145.63;54.73;38887.34;5044928;28;20298;-67
2023/07/30 05:09:17;;;;;;;4.88;4.05;;;;;;;-145.63;55.38;38867.81;5040404;28;20068;-67
2023/07/30 05:11:42;;;;;;;6.65;3.65;;;;;;;-145.63;54.46;38871.72;5024957;28;20018;-67
2023/07/30 05:14:08;;;;;;;5.20;3.67;;;;;;;-145.63;54.34;38838.47;5025123;28;20049;-68
2023/07/30 05:16:36;;;;;;;3.63;3.33;;;;;;;-145.63;53.79;38873.66;5026191;28;20273;-69
2023/07/30 05:19:02;;;;;;;7.05;3.95;;;;;;;-145.63;53.61;38848.25;5044677;28;20029;-68
2023/07/30 05:21:27;;;;;;;6.60;3.47;;;;;;;-145.63;53.01;38873.66;5044753;28;20101;-68
2023/07/30 05:23:53;;;;;;;8.30;3.42;;;;;;;-145.63;53.82;38838.47;5032667;28;20089;-68
2023/07/30 05:26:19;;;;;;;5.50;3.78;;;;;;;-145.63;53.65;38834.56;5031695;28;20199;-68
2023/07/30 05:28:44;;;;;;;4.80;3.78;;;;;;;-145.63;54.20;38758.28;5043173;28;20047;-68
2023/07/30 05:31:10;;;;;;;6.13;3.40;;;;;;;-145.63;53.78;38842.38;5044344;28;20099;-69
2023/07/30 05:33:36;;;;;;;5.32;3.47;;;;;;;-145.63;53.80;38820.88;5044558;28;20033;-69
2023/07/30 05:36:02;;;;;;;5.45;4.00;;;;;;;-145.63;53.37;38834.56;5044130;28;20362;-68
2023/07/30 05:38:27;;;;;;;3.78;3.35;;;;;;;-145.63;53.60;38824.78;5043189;28;20017;-69
2023/07/30 05:40:53;;;;;;;6.00;3.50;;;;;;;-145.63;53.86;38854.13;5037453;28;20060;-67
2023/07/30 05:43:18;;;;;;;6.88;3.78;;;;;;;-145.63;53.84;38858.03;5024349;28;20022;-68
2023/07/30 05:45:44;;;;;;;3.75;3.35;;;;;;;-145.63;53.14;38830.66;5043243;28;20051;-68
2023/07/30 05:48:10;;;;;;;3.55;3.20;;;;;;;-145.63;52.94;38781.75;5030114;28;20034;-69
2023/07/30 05:50:36;;;;;;;5.75;3.58;;;;;;;-145.63;52.78;38859.97;5033352;28;20033;-69
2023/07/30 05:53:01;;;;;;;4.43;3.22;;;;;;;-145.63;52.50;38815.00;5037521;28;20096;-68
2023/07/30 05:55:27;;;;;;;6.70;3.58;;;;;;;-145.63;52.82;38816.97;5022873;28;20033;-68
2023/07/30 05:57:53;;;;;;;4.40;3.38;;;;;;;-145.63;52.33;38789.59;5044096;28;20025;-68
2023/07/30 06:00:19;;;;;;;6.05;3.40;;;;;;;-145.63;52.31;38799.34;5042102;28;20053;-68
2023/07/30 06:02:45;;;;;;;6.85;3.42;;;;;;;-145.63;52.36;38793.50;5043860;28;20088;-69
2023/07/30 06:05:11;;;;;;;4.22;3.40;;;;;;;-145.63;52.31;38815.00;5037938;28;20026;-67
2023/07/30 06:07:37;;;;;;;6.20;4.10;;;;;;;-145.63;52.86;38785.66;5025114;28;20033;-68
2023/07/30 06:10:02;;;;;;;5.25;3.70;;;;;;;-145.63;53.21;38766.13;5043917;28;20033;-69
2023/07/30 06:12:31;;;;;;;5.47;3.92;;;;;;;-145.63;52.17;38815.00;5026820;28;20030;-68
2023/07/30 06:14:56;;;;;;;4.82;3.58;;;;;;;-145.63;52.69;38832.59;5023998;28;20586;-67
2023/07/30 06:17:22;;;;;;;4.18;3.35;;;;;;;-145.63;52.57;38770.03;5023708;28;20272;-69
2023/07/30 06:19:48;;;;;;;5.20;3.83;;;;;;;-145.63;51.63;38793.50;5026627;28;20087;-67
2023/07/30 06:22:14;;;;;;;4.55;3.80;;;;;;;-145.63;51.46;38813.03;5043679;28;20044;-68
2023/07/30 06:24:39;;;;;;;7.28;4.00;;;;;;;-145.63;51.66;38781.75;5043438;28;20087;-68
2023/07/30 06:27:05;;;;;;;4.82;3.45;;;;;;;-145.63;52.63;38748.50;5030456;28;20337;-68
2023/07/30 06:29:31;;;;;;;4.22;3.50;;;;;;;-145.63;53.22;38727.00;5023585;28;20370;-69
2023/07/30 06:31:57;;;;;;;9.88;5.30;;;;;;;-145.63;52.06;38764.16;5040527;28;20025;-67
2023/07/30 06:34:22;;;;;;;11.40;9.38;;;;;;;-145.63;51.52;38707.44;5043358;28;20071;-67
2023/07/30 06:36:48;;;;;;;8.57;5.15;;;;;;;-145.63;50.64;38752.44;5024392;28;20025;-67
2023/07/30 06:39:14;;;;;;;9.38;3.50;;;;;;;-145.63;51.39;38719.19;5037834;28;20072;-68
2023/07/30 06:41:39;;;;;;;9.13;3.67;;;;;;;-145.63;50.35;38709.41;5030291;28;20028;-68
2023/07/30 06:44:05;;;;;;;3.42;3.10;;;;;;;-145.63;50.03;38703.53;5028143;28;20029;-68
2023/07/30 06:46:31;;;;;;;5.50;3.85;;;;;;;-145.63;51.11;38691.81;5042693;28;20056;-67
2023/07/30 06:48:56;;;;;;;6.10;3.80;;;;;;;-145.63;50.70;38642.91;5023525;28;20523;-69
2023/07/30 06:51:25;;;;;;;4.13;3.25;;;;;;;-145.63;50.28;38670.28;5038677;28;20021;-68
2023/07/30 06:53:51;;;;;;;5.22;3.75;;;;;;;-145.63;50.03;38693.75;5032256;28;20026;-68
2023/07/30 06:56:16;;;;;;;5.93;3.85;;;;;;;-145.63;50.07;38642.91;5023472;28;20044;-68
2023/07/30 06:58:42;;;;;;;4.70;3.80;;;;;;;-145.63;49.71;38684.00;5024855;28;20218;-69
2023/07/30 07:01:08;;;;;;;7.85;4.47;;;;;;;-145.63;49.33;38652.69;5043589;28;20025;-68
2023/07/30 07:03:33;;;;;;;6.07;3.30;;;;;;;-145.63;50.25;38642.91;5025275;28;20249;-68
2023/07/30 07:05:59;;;;;;;6.70;3.63;;;;;;;-145.63;50.17;38619.47;5039624;28;20040;-67
2023/07/30 07:08:25;;;;;;;7.43;3.95;;;;;;;-145.63;49.71;38654.66;5042613;28;20034;-69
2023/07/30 07:10:50;;;;;;;7.97;4.30;;;;;;;-145.63;48.73;38646.84;5027188;28;20045;-68
2023/07/30 07:13:16;;;;;;;7.55;4.40;;;;;;;-145.63;48.47;38664.44;5027274;28;20329;-69
2023/07/30 07:15:43;;;;;;;9.73;5.00;;;;;;;-145.63;48.46;38695.72;5044999;28;20329;-67
2023/07/30 07:18:09;;;;;;;13.98;3.97;;;;;;;-145.63;48.35;38658.56;5034037;28;20022;-68
2023/07/30 07:20:36;;;;;;;5.53;3.42;;;;;;;-145.63;48.01;38613.59;5035561;28;20044;-69
2023/07/30 07:23:03;;;;;;;7.60;3.83;;;;;;;-145.63;47.98;38605.78;5042679;28;20034;-68
2023/07/30 07:25:29;;;;;;;6.25;3.80;;;;;;;-145.63;48.55;38594.03;5027300;28;20037;-68
2023/07/30 07:27:54;;;;;;;7.72;3.80;;;;;;;-145.63;49.25;38586.22;5046455;28;20029;-68
2023/07/30 07:30:20;;;;;;;5.10;3.35;;;;;;;-145.63;48.39;38584.25;5046648;28;20025;-69
2023/07/30 07:32:50;;;;;;;3.53;3.15;;;;;;;-145.63;48.42;38568.63;5046826;28;20065;-69
2023/07/30 07:35:18;;;;;;;7.28;3.40;;;;;;;-145.63;47.50;38572.53;5041188;28;20088;-67
2023/07/30 07:37:44;;;;;;;3.97;3.33;;;;;;;-145.63;46.93;38590.13;5028241;28;20226;-69
2023/07/30 07:40:10;;;;;;;7.30;3.50;;;;;;;-145.63;47.30;38603.81;5046044;28;20084;-69
2023/07/30 07:42:36;;;;;;;8.48;3.38;;;;;;;-145.63;47.30;38605.78;5043205;28;20041;-68
2023/07/30 07:45:01;;;;;;;6.90;3.33;;;;;;;-145.63;46.73;38594.03;5034550;28;20180;-67
2023/07/30 07:47:30;;;;;;;5.78;3.80;;;;;;;-145.63;46.45;38541.25;5034596;28;20091;-68
2023/07/30 07:49:56;;;;;;;5.93;3.70;;;;;;;-145.63;46.14;38586.22;5046369;28;20330;-67
2023/07/30 07:52:21;;;;;;;5.35;3.42;;;;;;;-145.63;46.17;38543.19;5046431;28;20322;-69
2023/07/30 07:54:47;;;;;;;5.82;3.20;;;;;;;-145.63;48.22;38531.47;5046214;28;20034;-67
2023/07/30 07:57:13;;;;;;;6.07;3.60;;;;;;;-145.63;47.13;38552.97;5035338;28;20218;-68
2023/07/30 07:59:38;;;;;;;7.05;3.30;;;;;;;-145.63;44.69;38582.31;5037712;28;20025;-68
2023/07/30 08:02:05;;;;;;;7.22;3.10;;;;;;;-145.63;45.17;38535.38;5030463;28;20366;-68
2023/07/30 08:04:30;;;;;;;4.72;3.05;;;;;;;-145.63;45.93;38578.41;5046162;28;20067;-67
2023/07/30 08:06:59;;;;;;;4.97;2.88;;;;;;;-145.63;45.28;38552.97;5026617;28;20033;-69
2023/07/30 08:09:25;;;;;;;3.10;2.70;;;;;;;-145.63;45.09;38461.06;5041003;28;20095;-68
2023/07/30 08:11:51;;;;;;;6.15;2.70;;;;;;;-145.63;45.49;38472.81;5035653;28;20306;-69
2023/07/30 08:14:16;;;;;;;4.03;3.15;;;;;;;-145.63;44.92;38500.19;5026118;28;20033;-69
2023/07/30 08:16:42;;;;;;;4.47;2.40;;;;;;;-145.63;45.85;38468.91;5026178;28;20026;-68
2023/07/30 08:19:08;;;;;;;5.18;3.10;;;;;;;-145.63;45.31;38472.81;5046132;28;20040;-68
2023/07/30 08:21:33;;;;;;;3.85;2.30;;;;;;;-145.63;42.81;38441.53;5029569;28;20239;-68
2023/07/30 08:23:59;;;;;;;4.97;2.92;;;;;;;-145.63;42.44;38431.75;5037313;28;20095;-67
2023/07/30 08:26:25;;;;;;;4.40;2.53;;;;;;;-145.63;42.63;38455.22;5039192;28;20037;-68
2023/07/30 08:28:50;;;;;;;3.47;2.60;;;;;;;-145.63;42.35;38367.22;5027802;28;20025;-69
2023/07/30 08:31:16;;;;;;;2.88;2.10;;;;;;;-145.63;40.91;38380.91;5038759;28;20083;-68
2023/07/30 08:33:42;;;;;;;3.33;3.00;;;;;;;-145.63;42.38;38386.78;5045645;28;20091;-69
2023/07/30 08:36:08;;;;;;;4.10;2.75;;;;;;;-145.63;43.53;38343.75;5045741;28;20045;-69
2023/07/30 08:38:33;;;;;;;3.33;2.25;;;;;;;-145.63;41.05;38433.69;5037770;28;20033;-68
2023/07/30 08:40:59;;;;;;;4.80;2.95;;;;;;;-145.63;42.26;38339.84;5028905;28;20056;-68
2023/07/30 08:43:26;;;;;;;3.78;2.58;;;;;;;-145.63;41.63;38302.69;5045349;28;20060;-68
2023/07/30 08:45:51;;;;;;;4.05;2.67;;;;;;;-145.63;41.00;38298.78;5027142;28;20026;-70
2023/07/30 08:48:17;;;;;;;5.40;3.20;;;;;;;-145.63;42.16;38287.06;5039018;28;20083;-69
2023/07/30 08:50:44;;;;;;;3.38;3.08;;;;;;;-145.63;41.52;38249.91;5036203;28;20218;-69
2023/07/30 08:53:10;;;;;;;5.47;2.78;;;;;;;-145.63;39.88;38343.75;5024265;28;20034;-68
2023/07/30 08:55:38;;;;;;;2.80;2.55;;;;;;;-145.63;40.13;38361.34;5025537;28;20034;-68
2023/07/30 08:58:05;;;;;;;6.25;4.93;;;;;;;-145.63;40.00;38335.94;5025663;28;20056;-70
2023/07/30 09:00:36;;;;;;;17.23;14.93;;;;;;;-145.63;40.57;38312.47;5040364;28;20025;-67
2023/07/30 09:03:04;;;;;;;6.47;3.65;;;;;;;-145.63;39.12;38271.41;5033815;28;20038;-70
2023/07/30 09:05:30;;;;;;;6.43;3.40;;;;;;;-145.63;39.11;38269.47;5032210;28;20068;-69
2023/07/30 09:07:57;;;;;;;4.50;2.60;;;;;;;-145.63;38.50;38255.78;5042735;28;20057;-69
2023/07/30 09:10:23;;;;;;;5.47;3.25;;;;;;;-145.63;38.61;38222.53;5025055;28;20025;-69
2023/07/30 09:12:58;;;;;;;3.38;2.22;;;;;;;-145.63;37.82;38197.13;5042727;28;20025;-68
2023/07/30 09:15:37;;;;;;;5.07;2.85;;;;;;;-145.63;38.50;38177.56;5030307;28;20033;-68
2023/07/30 09:18:04;;;;;;;4.97;2.97;;;;;;;-145.63;40.21;38152.16;5035954;28;20302;-69
2023/07/30 09:20:41;;;;;;;8.73;7.03;;;;;;;-145.63;38.23;38089.56;5037366;28;20033;-68
2023/07/30 09:23:08;;;;;;;22.38;19.52;;;;;;;-145.63;38.06;38165.84;5025052;28;20033;-69
2023/07/30 09:25:36;;;;;;;5.85;2.55;;;;;;;-145.63;39.92;38224.47;5024715;28;20349;-68
2023/07/30 09:28:02;;;;;;;4.47;2.60;;;;;;;-145.63;38.38;38171.69;5043440;28;20037;-68
2023/07/30 09:30:27;;;;;;;5.88;3.13;;;;;;;-145.63;39.01;38204.94;5034748;28;20262;-68
2023/07/30 09:32:56;;;;;;;3.08;2.70;;;;;;;-145.63;38.72;38212.75;5045255;28;20040;-68
2023/07/30 09:35:24;;;;;;;5.15;3.20;;;;;;;-145.63;39.54;38146.28;5037641;28;20203;-69
2023/07/30 09:38:02;;;;;;;6.32;2.50;;;;;;;-145.63;39.34;38204.94;5026044;28;20041;-69
2023/07/30 09:40:35;;;;;;;5.15;2.67;;;;;;;-145.63;38.40;38195.16;5041208;28;20064;-69
2023/07/30 09:43:04;;;;;;;3.25;2.65;;;;;;;-145.63;38.18;38287.06;5043780;28;20021;-69
2023/07/30 09:45:34;;;;;;;3.40;2.60;;;;;;;-145.63;37.97;38163.88;5044207;28;20040;-68
2023/07/30 09:48:03;;;;;;;3.35;2.45;;;;;;;-145.63;37.91;38199.06;5033694;28;20167;-68
2023/07/30 09:50:29;;;;;;;3.85;2.22;;;;;;;-145.63;38.56;38191.25;5024357;28;20044;-68
2023/07/30 09:52:58;;;;;;;4.93;2.40;;;;;;;-145.63;38.73;38126.72;5026192;28;20033;-68
2023/07/30 09:55:24;;;;;;;4.18;2.53;;;;;;;-145.63;37.63;38167.78;5044057;28;20092;-68
2023/07/30 09:57:49;;;;;;;3.13;2.30;;;;;;;-145.63;37.59;38124.78;5026741;28;20048;-68
2023/07/30 10:00:15;;;;;;;3.53;2.60;;;;;;;-145.63;36.84;38171.69;5036901;28;20022;-68
2023/07/30 10:02:49;;;;;;;2.58;2.25;;;;;;;-145.63;37.33;38113.03;5036005;28;20046;-69
2023/07/30 10:05:17;;;;;;;5.05;3.55;;;;;;;-145.63;38.64;38075.91;5028518;28;20025;-69
2023/07/30 10:08:08;;;;;;;2.72;2.40;;;;;;;-145.63;37.71;38105.22;5043800;28;20063;-68
2023/07/30 10:10:34;;;;;;;9.38;3.95;;;;;;;-145.63;38.39;38087.63;5024088;28;20030;-68
2023/07/30 10:13:05;;;;;;;5.18;2.40;;;;;;;-145.63;36.92;38167.78;5042832;28;20052;-69
2023/07/30 10:15:35;;;;;;;4.05;2.70;;;;;;;-145.63;37.18;38228.41;5028858;28;20029;-69
2023/07/30 10:18:01;;;;;;;7.20;4.20;;;;;;;-145.63;37.69;38163.88;5034313;28;20021;-69
2023/07/30 10:20:31;;;;;;;7.55;3.80;;;;;;;-145.63;38.50;38150.19;5037401;28;20037;-70
2023/07/30 10:23:01;;;;;;;6.45;3.00;;;;;;;-145.63;38.48;38179.50;5025293;28;20393;-70
2023/07/30 10:25:46;;;;;;;4.07;2.47;;;;;;;-145.63;37.24;38179.50;5043619;28;20044;-68
2023/07/30 10:28:28;;;;;;;5.60;2.38;;;;;;;-145.63;36.63;38171.69;5023776;28;20100;-69
2023/07/30 10:31:01;;;;;;;;;;;;;;;-145.63;38.27;38159.97;5032449;28;20106;-68
2023/07/30 10:33:51;;;;;;;2.95;2.28;;;;;;;-145.63;36.80;38187.34;5043369;28;19916;-68
2023/07/30 10:36:19;;;;;;;3.60;1.90;;;;;;;-145.63;36.82;38208.84;5028090;28;20097;-68
2023/07/30 10:38:45;;;;;;;4.00;2.40;;;;;;;-145.63;36.60;38163.88;5031223;28;20022;-69
2023/07/30 10:41:18;;;;;;;4.60;3.20;;;;;;;-145.63;36.49;38257.72;5037582;28;20029;-69
2023/07/30 10:43:50;;;;;;;5.15;2.70;;;;;;;-145.63;35.10;38136.50;5043272;28;20143;-69
2023/07/30 10:46:17;;;;;;;2.15;1.67;;;;;;;-145.63;34.46;38171.69;5023466;28;20080;-69
2023/07/30 10:48:47;;;;;;;3.67;2.10;;;;;;;-145.63;34.91;38126.72;5039114;28;20226;-69
2023/07/30 10:51:16;;;;;;;4.25;2.15;;;;;;;-145.63;35.91;37630.16;5030879;28;20022;-69
2023/07/30 10:53:47;;;;;;;3.00;2.50;;;;;;;-145.63;35.08;38093.50;5029515;28;20032;-69
2023/07/30 10:56:15;;;;;;;4.57;2.78;;;;;;;-145.63;35.81;38077.84;5039914;28;20029;-69
2023/07/30 10:58:43;;;;;;;4.47;2.15;;;;;;;-145.63;33.66;38105.22;5023354;28;20310;-69
2023/07/30 11:01:09;;;;;;;3.35;2.10;;;;;;;-145.63;33.89;37917.53;5042778;28;20029;-69
2023/07/30 11:03:36;;;;;;;4.10;2.08;;;;;;;-145.63;33.19;38113.03;5028649;28;20322;-68
2023/07/30 11:06:02;;;;;;;2.30;1.88;;;;;;;-145.63;33.59;38105.22;5033350;28;20038;-69
2023/07/30 11:08:37;;;;;;;4.63;2.05;;;;;;;-145.63;34.11;38050.47;5037375;28;20044;-69
2023/07/30 11:11:04;;;;;;;2.63;1.67;;;;;;;-145.63;33.08;38052.44;5025279;28;20030;-68